createdAt,value
2019-01-18T00:00:42.853Z,998.56
2019-01-18T00:01:42.842Z,998.57
2019-01-18T00:02:42.831Z,998.62
2019-01-18T00:03:42.836Z,998.64
2019-01-18T00:04:42.813Z,998.65
2019-01-18T00:05:42.797Z,998.65
2019-01-18T00:06:42.802Z,998.66
2019-01-18T00:07:42.779Z,998.69
2019-01-18T00:08:42.770Z,998.68
2019-01-18T00:09:42.797Z,998.68
2019-01-18T00:10:42.748Z,998.72
2019-01-18T00:11:42.737Z,998.77
2019-01-18T00:12:42.723Z,998.77
2019-01-18T00:13:42.715Z,998.78
2019-01-18T00:14:42.703Z,998.71
2019-01-18T00:15:42.708Z,998.75
2019-01-18T00:16:42.677Z,998.83
2019-01-18T00:17:42.672Z,998.80
2019-01-18T00:18:42.659Z,998.88
2019-01-18T00:19:42.651Z,998.89
2019-01-18T00:20:42.656Z,998.91
2019-01-18T00:21:42.628Z,998.93
2019-01-18T00:22:42.632Z,998.95
2019-01-18T00:23:42.606Z,998.94
2019-01-18T00:24:42.598Z,998.97
2019-01-18T00:25:42.605Z,998.99
2019-01-18T00:26:42.576Z,999.04
2019-01-18T00:27:42.566Z,999.06
2019-01-18T00:28:42.556Z,999.02
2019-01-18T00:29:42.545Z,999.07
2019-01-18T00:30:42.534Z,999.14
2019-01-18T00:31:42.537Z,999.11
2019-01-18T00:32:42.513Z,999.13
2019-01-18T00:33:42.552Z,999.14
2019-01-18T00:34:42.492Z,999.21
2019-01-18T00:35:42.480Z,999.23
2019-01-18T00:36:42.468Z,999.25
2019-01-18T00:37:42.457Z,999.22
2019-01-18T00:38:42.446Z,999.22
2019-01-18T00:39:42.467Z,999.24
2019-01-18T00:40:42.425Z,999.29
2019-01-18T00:41:42.414Z,999.31
2019-01-18T00:42:42.405Z,999.33
2019-01-18T00:43:42.392Z,999.34
2019-01-18T00:44:42.382Z,999.29
2019-01-18T00:45:42.391Z,999.39
2019-01-18T00:46:42.361Z,999.39
2019-01-18T00:47:42.355Z,999.41
2019-01-18T00:48:42.358Z,999.42
2019-01-18T00:49:42.347Z,999.45
2019-01-18T00:50:42.319Z,999.44
2019-01-18T00:51:42.310Z,999.48
2019-01-18T00:52:42.300Z,999.43
2019-01-18T00:53:42.304Z,999.48
2019-01-18T00:54:42.278Z,999.50
2019-01-18T00:55:42.301Z,999.52
2019-01-18T00:56:42.257Z,999.54
2019-01-18T00:57:42.245Z,999.49
2019-01-18T00:58:42.233Z,999.49
2019-01-18T00:59:42.223Z,999.51
2019-01-18T01:00:42.213Z,999.53
2019-01-18T01:01:42.234Z,999.56
2019-01-18T01:02:42.196Z,999.63
2019-01-18T01:03:42.184Z,999.61
2019-01-18T01:04:42.169Z,999.64
2019-01-18T01:05:42.161Z,999.63
2019-01-18T01:06:42.149Z,999.66
2019-01-18T01:07:42.156Z,999.73
2019-01-18T01:08:42.128Z,999.72
2019-01-18T01:09:42.118Z,999.71
2019-01-18T01:10:42.124Z,999.74
2019-01-18T01:11:42.097Z,999.72
2019-01-18T01:12:42.100Z,999.78
2019-01-18T01:13:42.073Z,999.77
2019-01-18T01:14:42.082Z,999.80
2019-01-18T01:15:42.055Z,999.79
2019-01-18T01:16:42.044Z,999.81
2019-01-18T01:17:42.033Z,999.78
2019-01-18T01:18:42.023Z,999.88
2019-01-18T01:19:42.017Z,999.93
2019-01-18T01:20:42.018Z,999.99
2019-01-18T01:21:42.006Z,999.98
2019-01-18T01:22:41.993Z,1000.03
2019-01-18T01:23:41.971Z,1000.06
2019-01-18T01:24:41.969Z,1000.08
2019-01-18T01:25:41.950Z,1000.17
2019-01-18T01:26:41.972Z,1000.23
2019-01-18T01:27:41.925Z,1000.17
2019-01-18T01:28:41.918Z,1000.25
2019-01-18T01:29:43.125Z,1000.26
2019-01-18T01:30:41.898Z,1000.32
2019-01-18T01:31:41.884Z,1000.35
2019-01-18T01:32:41.888Z,1000.35
2019-01-18T01:33:41.867Z,1000.39
2019-01-18T01:34:41.851Z,1000.37
2019-01-18T01:35:41.841Z,1000.42
2019-01-18T01:36:41.831Z,1000.44
2019-01-18T01:37:41.862Z,1000.48
2019-01-18T01:38:41.807Z,1000.53
2019-01-18T01:39:41.800Z,1000.53
2019-01-18T01:40:41.788Z,1000.55
2019-01-18T01:41:41.776Z,1000.63
2019-01-18T01:42:41.764Z,1000.65
2019-01-18T01:43:41.769Z,1000.67
2019-01-18T01:44:41.760Z,1000.67
2019-01-18T01:45:41.732Z,1000.71
2019-01-18T01:46:41.721Z,1000.74
2019-01-18T01:47:41.713Z,1000.74
2019-01-18T01:48:41.717Z,1000.76
2019-01-18T01:49:41.706Z,1000.78
2019-01-18T01:50:41.682Z,1000.80
2019-01-18T01:51:41.670Z,1000.79
2019-01-18T01:52:41.661Z,1000.78
2019-01-18T01:53:41.655Z,1000.82
2019-01-18T01:54:41.655Z,1000.87
2019-01-18T01:55:41.641Z,1000.91
2019-01-18T01:56:41.618Z,1000.90
2019-01-18T01:57:41.606Z,1000.91
2019-01-18T01:58:41.598Z,1000.93
2019-01-18T01:59:41.606Z,1000.96
2019-01-18T02:00:41.575Z,1000.98
2019-01-18T02:01:41.563Z,1000.98
2019-01-18T02:02:41.553Z,1001.00
2019-01-18T02:03:41.540Z,1001.05
2019-01-18T02:04:41.530Z,1001.05
2019-01-18T02:05:41.564Z,1001.06
2019-01-18T02:06:41.508Z,1001.07
2019-01-18T02:07:41.499Z,1001.08
2019-01-18T02:08:41.491Z,1001.12
2019-01-18T02:09:41.476Z,1001.10
2019-01-18T02:10:41.465Z,1001.11
2019-01-18T02:11:41.469Z,1001.11
2019-01-18T02:12:41.446Z,1001.14
2019-01-18T02:13:41.433Z,1001.15
2019-01-18T02:14:41.422Z,1001.18
2019-01-18T02:15:41.414Z,1001.17
2019-01-18T02:16:41.417Z,1001.20
2019-01-18T02:17:41.391Z,1001.18
2019-01-18T02:18:41.381Z,1001.18
2019-01-18T02:19:41.369Z,1001.28
2019-01-18T02:20:41.360Z,1001.22
2019-01-18T02:21:41.364Z,1001.25
2019-01-18T02:22:41.354Z,1001.21
2019-01-18T02:23:41.327Z,1001.23
2019-01-18T02:24:41.315Z,1001.28
2019-01-18T02:25:41.306Z,1001.29
2019-01-18T02:26:41.293Z,1001.28
2019-01-18T02:27:41.329Z,1001.31
2019-01-18T02:28:41.272Z,1001.37
2019-01-18T02:29:41.261Z,1001.32
2019-01-18T02:30:41.254Z,1001.31
2019-01-18T02:31:41.243Z,1001.32
2019-01-18T02:32:41.233Z,1001.31
2019-01-18T02:33:41.236Z,1001.35
2019-01-18T02:34:41.210Z,1001.37
2019-01-18T02:35:41.198Z,1001.35
2019-01-18T02:36:41.186Z,1001.43
2019-01-18T02:37:41.192Z,1001.49
2019-01-18T02:38:41.167Z,1001.51
2019-01-18T02:39:41.156Z,1001.53
2019-01-18T02:40:41.144Z,1001.52
2019-01-18T02:41:41.136Z,1001.57
2019-01-18T02:42:41.145Z,1001.58
2019-01-18T02:43:41.111Z,1001.55
2019-01-18T02:44:41.104Z,1001.58
2019-01-18T02:45:41.093Z,1001.59
2019-01-18T02:46:41.081Z,1001.62
2019-01-18T02:47:41.070Z,1001.63
2019-01-18T02:48:41.087Z,1001.67
2019-01-18T02:49:41.047Z,1001.69
2019-01-18T02:50:41.036Z,1001.70
2019-01-18T02:51:41.025Z,1001.75
2019-01-18T02:52:41.017Z,1001.69
2019-01-18T02:53:41.006Z,1001.69
2019-01-18T02:54:41.009Z,1001.72
2019-01-18T02:55:40.983Z,1001.72
2019-01-18T02:56:40.972Z,1001.74
2019-01-18T02:57:40.962Z,1001.76
2019-01-18T02:58:40.993Z,1001.78
2019-01-18T02:59:40.941Z,1001.81
2019-01-18T03:00:40.930Z,1001.80
2019-01-18T03:01:40.918Z,1001.87
2019-01-18T03:02:40.910Z,1001.89
2019-01-18T03:03:40.898Z,1001.94
2019-01-18T03:04:40.904Z,1001.96
2019-01-18T03:05:40.879Z,1001.98
2019-01-18T03:06:40.865Z,1002.01
2019-01-18T03:07:40.859Z,1001.99
2019-01-18T03:08:40.848Z,1002.01
2019-01-18T03:09:40.850Z,1001.99
2019-01-18T03:10:40.824Z,1002.05
2019-01-18T03:11:40.817Z,1002.03
2019-01-18T03:12:40.804Z,1002.05
2019-01-18T03:13:40.795Z,1002.06
2019-01-18T03:14:40.805Z,1002.03
2019-01-18T03:15:40.772Z,1002.09
2019-01-18T03:16:40.759Z,1002.06
2019-01-18T03:17:40.749Z,1002.17
2019-01-18T03:18:40.744Z,1002.15
2019-01-18T03:19:40.726Z,1002.18
2019-01-18T03:20:40.762Z,1002.19
2019-01-18T03:21:40.709Z,1002.18
2019-01-18T03:22:40.696Z,1002.22
2019-01-18T03:23:40.687Z,1002.24
2019-01-18T03:24:40.677Z,1002.19
2019-01-18T03:25:40.660Z,1002.19
2019-01-18T03:26:40.669Z,1002.20
2019-01-18T03:27:40.657Z,1002.26
2019-01-18T03:28:40.633Z,1002.24
2019-01-18T03:29:40.624Z,1002.25
2019-01-18T03:30:40.638Z,1002.27
2019-01-18T03:31:40.623Z,1002.27
2019-01-18T03:32:40.592Z,1002.29
2019-01-18T03:33:40.580Z,1002.29
2019-01-18T03:34:40.568Z,1002.31
2019-01-18T03:35:40.560Z,1002.37
2019-01-18T03:36:40.562Z,1002.37
2019-01-18T03:37:40.535Z,1002.39
2019-01-18T03:38:40.524Z,1002.40
2019-01-18T03:39:40.526Z,1002.41
2019-01-18T03:40:40.503Z,1002.44
2019-01-18T03:41:40.495Z,1002.45
2019-01-18T03:42:40.498Z,1002.39
2019-01-18T03:43:40.475Z,1002.42
2019-01-18T03:44:40.464Z,1002.47
2019-01-18T03:45:40.450Z,1002.49
2019-01-18T03:46:40.440Z,1002.46
2019-01-18T03:47:40.469Z,1002.49
2019-01-18T03:48:40.418Z,1002.52
2019-01-18T03:49:40.412Z,1002.51
2019-01-18T03:50:40.397Z,1002.58
2019-01-18T03:51:40.388Z,1002.57
2019-01-18T03:52:40.378Z,1002.59
2019-01-18T03:53:40.382Z,1002.61
2019-01-18T03:54:40.356Z,1002.63
2019-01-18T03:55:40.349Z,1002.71
2019-01-18T03:56:40.337Z,1002.67
2019-01-18T03:57:40.322Z,1002.65
2019-01-18T03:58:40.329Z,1002.67
2019-01-18T03:59:40.303Z,1002.73
2019-01-18T04:00:40.289Z,1002.76
2019-01-18T04:01:40.280Z,1002.78
2019-01-18T04:02:40.268Z,1002.75
2019-01-18T04:03:40.279Z,1002.80
2019-01-18T04:04:40.248Z,1002.79
2019-01-18T04:05:40.245Z,1002.79
2019-01-18T04:06:40.228Z,1002.83
2019-01-18T04:07:40.218Z,1002.86
2019-01-18T04:08:40.208Z,1002.85
2019-01-18T04:09:40.213Z,1002.88
2019-01-18T04:10:40.185Z,1002.87
2019-01-18T04:11:40.191Z,1002.90
2019-01-18T04:12:40.164Z,1002.96
2019-01-18T04:13:40.153Z,1002.97
2019-01-18T04:14:40.165Z,1002.98
2019-01-18T04:15:40.131Z,1003.01
2019-01-18T04:16:40.121Z,1003.02
2019-01-18T04:17:40.113Z,1003.02
2019-01-18T04:18:40.100Z,1003.01
2019-01-18T04:19:40.088Z,1003.03
2019-01-18T04:20:40.096Z,1003.02
2019-01-18T04:21:40.067Z,1003.01
2019-01-18T04:22:40.057Z,1003.04
2019-01-18T04:23:40.051Z,1003.03
2019-01-18T04:24:40.037Z,1003.06
2019-01-18T04:25:40.028Z,1003.01
2019-01-18T04:26:40.031Z,1003.05
2019-01-18T04:27:40.004Z,1003.02
2019-01-18T04:28:39.997Z,1003.07
2019-01-18T04:29:39.981Z,1003.07
2019-01-18T04:30:39.991Z,1002.95
2019-01-18T04:31:39.965Z,1003.04
2019-01-18T04:32:39.951Z,1003.02
2019-01-18T04:33:39.943Z,1003.04
2019-01-18T04:34:39.931Z,1003.01
2019-01-18T04:35:39.934Z,1003.03
2019-01-18T04:36:39.912Z,1003.02
2019-01-18T04:37:39.916Z,1003.08
2019-01-18T04:38:39.887Z,1003.08
2019-01-18T04:39:39.877Z,1003.09
2019-01-18T04:40:39.866Z,1003.09
2019-01-18T04:41:39.867Z,1003.12
2019-01-18T04:42:39.862Z,1003.14
2019-01-18T04:43:39.840Z,1003.12
2019-01-18T04:44:39.826Z,1003.18
2019-01-18T04:45:39.817Z,1003.17
2019-01-18T04:46:39.806Z,1003.18
2019-01-18T04:47:39.813Z,1003.22
2019-01-18T04:48:39.782Z,1003.23
2019-01-18T04:49:39.769Z,1003.31
2019-01-18T04:50:39.766Z,1003.24
2019-01-18T04:51:39.748Z,1003.28
2019-01-18T04:52:39.737Z,1003.24
2019-01-18T04:53:39.743Z,1003.24
2019-01-18T04:54:39.724Z,1003.30
2019-01-18T04:55:39.709Z,1003.29
2019-01-18T04:56:39.698Z,1003.31
2019-01-18T04:57:39.687Z,1003.33
2019-01-18T04:58:39.718Z,1003.39
2019-01-18T04:59:39.668Z,1003.38
2019-01-18T05:00:41.096Z,1003.38
2019-01-18T05:01:39.644Z,1003.41
2019-01-18T05:02:39.633Z,1003.47
2019-01-18T05:03:39.621Z,1003.47
2019-01-18T05:04:39.661Z,1003.50
2019-01-18T05:05:39.606Z,1003.51
2019-01-18T05:06:39.593Z,1003.57
2019-01-18T05:07:39.580Z,1003.59
2019-01-18T05:08:39.570Z,1003.59
2019-01-18T05:09:39.578Z,1003.62
2019-01-18T05:10:39.546Z,1003.66
2019-01-18T05:11:39.535Z,1003.68
2019-01-18T05:12:39.527Z,1003.71
2019-01-18T05:13:39.520Z,1003.72
2019-01-18T05:14:39.520Z,1003.71
2019-01-18T05:15:39.494Z,1003.74
2019-01-18T05:16:39.484Z,1003.74
2019-01-18T05:17:39.471Z,1003.73
2019-01-18T05:18:39.459Z,1003.74
2019-01-18T05:19:39.479Z,1003.73
2019-01-18T05:20:39.447Z,1003.78
2019-01-18T05:21:39.431Z,1003.79
2019-01-18T05:22:39.422Z,1003.80
2019-01-18T05:23:39.407Z,1003.79
2019-01-18T05:24:39.407Z,1003.81
2019-01-18T05:25:39.402Z,1003.83
2019-01-18T05:26:39.379Z,1003.87
2019-01-18T05:27:39.369Z,1003.92
2019-01-18T05:28:39.364Z,1003.92
2019-01-18T05:29:39.348Z,1003.95
2019-01-18T05:30:39.363Z,1003.92
2019-01-18T05:31:39.323Z,1003.94
2019-01-18T05:32:39.312Z,1003.95
2019-01-18T05:33:39.299Z,1003.95
2019-01-18T05:34:39.320Z,1003.94
2019-01-18T05:35:39.543Z,1003.94
2019-01-18T05:36:39.283Z,1003.95
2019-01-18T05:37:39.259Z,1003.97
2019-01-18T05:38:39.245Z,1004.01
2019-01-18T05:39:39.249Z,1004.00
2019-01-18T05:40:39.227Z,1004.03
2019-01-18T05:41:39.217Z,1004.05
2019-01-18T05:42:39.220Z,1004.07
2019-01-18T05:43:39.196Z,1004.07
2019-01-18T05:44:40.840Z,1004.07
2019-01-18T05:45:39.174Z,1004.08
2019-01-18T05:46:39.189Z,1004.11
2019-01-18T05:47:39.151Z,1004.09
2019-01-18T05:48:39.141Z,1004.13
2019-01-18T05:49:39.129Z,1004.12
2019-01-18T05:50:39.118Z,1004.15
2019-01-18T05:51:39.107Z,1004.15
2019-01-18T05:52:39.108Z,1004.16
2019-01-18T05:53:39.084Z,1004.18
2019-01-18T05:54:39.081Z,1004.14
2019-01-18T05:55:39.064Z,1004.16
2019-01-18T05:56:39.056Z,1004.20
2019-01-18T05:57:39.053Z,1004.22
2019-01-18T05:58:39.036Z,1004.21
2019-01-18T05:59:39.038Z,1004.22
2019-01-18T06:00:39.012Z,1004.30
2019-01-18T06:01:38.999Z,1004.30
2019-01-18T06:02:38.988Z,1004.29
2019-01-18T06:03:38.991Z,1004.31
2019-01-18T06:04:38.968Z,1004.30
2019-01-18T06:05:38.956Z,1004.35
2019-01-18T06:06:38.948Z,1004.31
2019-01-18T06:07:38.937Z,1004.36
2019-01-18T06:08:38.938Z,1004.36
2019-01-18T06:09:38.912Z,1004.36
2019-01-18T06:10:38.905Z,1004.38
2019-01-18T06:11:38.892Z,1004.43
2019-01-18T06:12:38.886Z,1004.43
2019-01-18T06:13:38.886Z,1004.46
2019-01-18T06:14:38.865Z,1004.51
2019-01-18T06:15:40.471Z,1004.50
2019-01-18T06:16:38.838Z,1004.51
2019-01-18T06:17:38.830Z,1004.56
2019-01-18T06:18:38.816Z,1004.59
2019-01-18T06:19:38.818Z,1004.61
2019-01-18T06:20:38.813Z,1004.61
2019-01-18T06:21:38.790Z,1004.61
2019-01-18T06:22:38.781Z,1004.57
2019-01-18T06:23:38.779Z,1004.61
2019-01-18T06:24:38.755Z,1004.64
2019-01-18T06:25:38.773Z,1004.66
2019-01-18T06:26:38.738Z,1004.68
2019-01-18T06:27:38.741Z,1004.72
2019-01-18T06:28:38.712Z,1004.70
2019-01-18T06:29:38.754Z,1004.74
2019-01-18T06:30:38.692Z,1004.76
2019-01-18T06:31:38.691Z,1004.77
2019-01-18T06:32:38.671Z,1004.78
2019-01-18T06:33:38.659Z,1004.78
2019-01-18T06:34:38.650Z,1004.80
2019-01-18T06:35:38.643Z,1004.83
2019-01-18T06:36:38.639Z,1004.82
2019-01-18T06:37:38.617Z,1004.85
2019-01-18T06:38:38.619Z,1004.87
2019-01-18T06:39:38.594Z,1004.85
2019-01-18T06:40:38.586Z,1004.85
2019-01-18T06:41:38.588Z,1004.87
2019-01-18T06:42:38.561Z,1004.89
2019-01-18T06:43:38.550Z,1004.87
2019-01-18T06:44:38.542Z,1004.91
2019-01-18T06:45:38.531Z,1004.90
2019-01-18T06:46:38.548Z,1004.94
2019-01-18T06:47:38.513Z,1004.93
2019-01-18T06:48:38.499Z,1004.93
2019-01-18T06:49:38.489Z,1004.93
2019-01-18T06:50:38.480Z,1004.98
2019-01-18T06:51:38.466Z,1004.95
2019-01-18T06:52:38.467Z,1004.92
2019-01-18T06:53:38.447Z,1004.90
2019-01-18T06:54:38.437Z,1004.92
2019-01-18T06:55:38.429Z,1004.96
2019-01-18T06:56:38.415Z,1004.95
2019-01-18T06:57:38.440Z,1004.98
2019-01-18T06:58:38.391Z,1004.97
2019-01-18T06:59:38.382Z,1004.99
2019-01-18T07:00:38.373Z,1005.01
2019-01-18T07:01:38.359Z,1004.99
2019-01-18T07:02:38.379Z,1005.01
2019-01-18T07:03:38.340Z,1005.04
2019-01-18T07:04:41.509Z,1005.00
2019-01-18T07:05:38.319Z,1005.01
2019-01-18T07:06:38.306Z,1005.07
2019-01-18T07:07:38.297Z,1005.09
2019-01-18T07:08:38.338Z,1005.11
2019-01-18T07:09:38.276Z,1005.17
2019-01-18T07:10:38.264Z,1005.13
2019-01-18T07:11:38.259Z,1005.21
2019-01-18T07:12:38.243Z,1005.23
2019-01-18T07:13:38.235Z,1005.26
2019-01-18T07:14:38.238Z,1005.29
2019-01-18T07:15:38.211Z,1005.31
2019-01-18T07:16:38.200Z,1005.30
2019-01-18T07:17:38.193Z,1005.38
2019-01-18T07:18:38.180Z,1005.31
2019-01-18T07:19:38.185Z,1005.39
2019-01-18T07:20:40.750Z,1005.37
2019-01-18T07:21:38.149Z,1005.38
2019-01-18T07:22:38.140Z,1005.44
2019-01-18T07:23:38.126Z,1005.43
2019-01-18T07:24:38.150Z,1005.46
2019-01-18T07:25:38.106Z,1005.43
2019-01-18T07:26:38.098Z,1005.50
2019-01-18T07:27:38.085Z,1005.55
2019-01-18T07:28:38.075Z,1005.58
2019-01-18T07:29:38.063Z,1005.59
2019-01-18T07:30:38.070Z,1005.64
2019-01-18T07:31:38.042Z,1005.65
2019-01-18T07:32:38.034Z,1005.67
2019-01-18T07:33:38.021Z,1005.65
2019-01-18T07:34:38.013Z,1005.66
2019-01-18T07:35:38.039Z,1005.64
2019-01-18T07:36:37.992Z,1005.71
2019-01-18T07:37:37.979Z,1005.73
2019-01-18T07:38:37.969Z,1005.69
2019-01-18T07:39:37.960Z,1005.75
2019-01-18T07:40:37.949Z,1005.74
2019-01-18T07:41:37.951Z,1005.75
2019-01-18T07:42:37.928Z,1005.79
2019-01-18T07:43:37.915Z,1005.78
2019-01-18T07:44:37.906Z,1005.83
2019-01-18T07:45:37.896Z,1005.88
2019-01-18T07:46:37.936Z,1005.87
2019-01-18T07:47:37.871Z,1005.87
2019-01-18T07:48:37.863Z,1005.89
2019-01-18T07:49:37.853Z,1005.86
2019-01-18T07:50:37.842Z,1005.96
2019-01-18T07:51:37.829Z,1005.95
2019-01-18T07:52:37.854Z,1005.99
2019-01-18T07:53:37.807Z,1005.98
2019-01-18T07:54:37.800Z,1005.99
2019-01-18T07:55:37.793Z,1006.03
2019-01-18T07:56:37.778Z,1006.09
2019-01-18T07:57:37.765Z,1006.04
2019-01-18T07:58:37.770Z,1006.10
2019-01-18T07:59:37.743Z,1006.07
2019-01-18T08:00:37.736Z,1006.13
2019-01-18T08:01:37.723Z,1006.12
2019-01-18T08:02:37.712Z,1006.16
2019-01-18T08:03:37.734Z,1006.18
2019-01-18T08:04:37.690Z,1006.18
2019-01-18T08:05:37.680Z,1006.19
2019-01-18T08:06:37.668Z,1006.18
2019-01-18T08:07:37.660Z,1006.15
2019-01-18T08:08:37.647Z,1006.17
2019-01-18T08:09:37.676Z,1006.21
2019-01-18T08:10:37.626Z,1006.23
2019-01-18T08:11:37.615Z,1006.26
2019-01-18T08:12:37.606Z,1006.26
2019-01-18T08:13:37.599Z,1006.25
2019-01-18T08:14:37.587Z,1006.27
2019-01-18T08:15:37.592Z,1006.19
2019-01-18T08:16:37.564Z,1006.20
2019-01-18T08:17:37.567Z,1006.21
2019-01-18T08:18:37.540Z,1006.26
2019-01-18T08:19:37.532Z,1006.27
2019-01-18T08:20:37.520Z,1006.33
2019-01-18T08:21:37.526Z,1006.29
2019-01-18T08:22:37.496Z,1006.36
2019-01-18T08:23:37.490Z,1006.35
2019-01-18T08:24:37.477Z,1006.37
2019-01-18T08:25:37.465Z,1006.36
2019-01-18T08:26:37.473Z,1006.37
2019-01-18T08:27:37.444Z,1006.42
2019-01-18T08:28:37.436Z,1006.42
2019-01-18T08:29:37.424Z,1006.43
2019-01-18T08:30:37.433Z,1006.35
2019-01-18T08:31:37.404Z,1006.41
2019-01-18T08:32:37.391Z,1006.40
2019-01-18T08:33:37.383Z,1006.40
2019-01-18T08:34:37.373Z,1006.42
2019-01-18T08:35:37.359Z,1006.45
2019-01-18T08:36:37.360Z,1006.47
2019-01-18T08:37:37.337Z,1006.44
2019-01-18T08:38:37.342Z,1006.47
2019-01-18T08:39:37.318Z,1006.46
2019-01-18T08:40:37.307Z,1006.51
2019-01-18T08:41:37.312Z,1006.48
2019-01-18T08:42:37.301Z,1006.51
2019-01-18T08:43:37.273Z,1006.44
2019-01-18T08:44:37.280Z,1006.52
2019-01-18T08:45:37.253Z,1006.52
2019-01-18T08:46:37.241Z,1006.53
2019-01-18T08:47:37.230Z,1006.51
2019-01-18T08:48:37.235Z,1006.55
2019-01-18T08:49:37.209Z,1006.55
2019-01-18T08:50:37.199Z,1006.54
2019-01-18T08:51:37.188Z,1006.58
2019-01-18T08:52:37.176Z,1006.59
2019-01-18T08:53:37.180Z,1006.58
2019-01-18T08:54:38.392Z,1006.64
2019-01-18T08:55:37.144Z,1006.62
2019-01-18T08:56:37.132Z,1006.65
2019-01-18T08:57:37.124Z,1006.59
2019-01-18T08:58:37.113Z,1006.61
2019-01-18T08:59:37.104Z,1006.67
2019-01-18T09:00:37.113Z,1006.65
2019-01-18T09:01:37.095Z,1006.68
2019-01-18T09:02:37.074Z,1006.71
2019-01-18T09:03:37.062Z,1006.68
2019-01-18T09:04:37.051Z,1006.70
2019-01-18T09:05:37.039Z,1006.71
2019-01-18T09:06:37.045Z,1006.69
2019-01-18T09:07:37.019Z,1006.71
2019-01-18T09:08:37.007Z,1006.77
2019-01-18T09:09:36.997Z,1006.76
2019-01-18T09:10:37.002Z,1006.72
2019-01-18T09:11:36.973Z,1006.77
2019-01-18T09:12:36.966Z,1006.73
2019-01-18T09:13:36.965Z,1006.75
2019-01-18T09:14:36.940Z,1006.74
2019-01-18T09:15:36.931Z,1006.75
2019-01-18T09:16:36.923Z,1006.75
2019-01-18T09:17:36.911Z,1006.76
2019-01-18T09:18:36.916Z,1006.79
2019-01-18T09:19:36.890Z,1006.80
2019-01-18T09:20:36.877Z,1006.77
2019-01-18T09:21:36.867Z,1006.83
2019-01-18T09:22:36.856Z,1006.88
2019-01-18T09:23:36.863Z,1006.87
2019-01-18T09:24:36.836Z,1006.89
2019-01-18T09:25:36.826Z,1006.88
2019-01-18T09:26:36.844Z,1006.88
2019-01-18T09:27:36.803Z,1006.83
2019-01-18T09:28:36.794Z,1006.88
2019-01-18T09:29:36.784Z,1006.90
2019-01-18T09:30:36.777Z,1006.84
2019-01-18T09:31:42.419Z,1006.90
2019-01-18T09:32:37.791Z,1006.90
2019-01-18T09:33:36.740Z,1006.85
2019-01-18T09:34:36.727Z,1006.87
2019-01-18T09:35:36.718Z,1006.95
2019-01-18T09:36:36.707Z,1006.92
2019-01-18T09:37:36.700Z,1006.89
2019-01-18T09:38:36.704Z,1006.91
2019-01-18T09:39:36.691Z,1006.90
2019-01-18T09:40:36.666Z,1006.83
2019-01-18T09:41:36.653Z,1006.87
2019-01-18T09:42:36.646Z,1006.86
2019-01-18T09:43:36.665Z,1006.91
2019-01-18T09:44:36.624Z,1006.92
2019-01-18T09:45:36.611Z,1006.96
2019-01-18T09:46:36.601Z,1006.96
2019-01-18T09:47:36.588Z,1006.95
2019-01-18T09:48:36.577Z,1006.97
2019-01-18T09:49:36.600Z,1006.98
2019-01-18T09:50:36.556Z,1006.92
2019-01-18T09:51:36.546Z,1006.95
2019-01-18T09:52:36.536Z,1006.98
2019-01-18T09:53:36.539Z,1007.00
2019-01-18T09:54:36.516Z,1007.02
2019-01-18T09:55:36.504Z,1007.00
2019-01-18T09:56:36.493Z,1007.04
2019-01-18T09:57:36.481Z,1007.00
2019-01-18T09:58:36.489Z,1006.98
2019-01-18T09:59:36.461Z,1006.96
2019-01-18T10:00:36.447Z,1007.00
2019-01-18T10:01:36.455Z,1006.97
2019-01-18T10:02:36.429Z,1006.94
2019-01-18T10:03:36.430Z,1006.95
2019-01-18T10:04:36.404Z,1006.93
2019-01-18T10:05:36.392Z,1006.94
2019-01-18T10:06:36.381Z,1006.95
2019-01-18T10:07:36.376Z,1006.91
2019-01-18T10:08:36.381Z,1006.94
2019-01-18T10:09:36.355Z,1006.96
2019-01-18T10:10:36.342Z,1006.91
2019-01-18T10:11:36.330Z,1006.91
2019-01-18T10:12:36.317Z,1006.92
2019-01-18T10:13:36.325Z,1006.89
2019-01-18T10:14:36.300Z,1006.88
2019-01-18T10:15:36.285Z,1006.89
2019-01-18T10:16:36.277Z,1006.94
2019-01-18T10:17:36.263Z,1006.92
2019-01-18T10:18:36.319Z,1006.86
2019-01-18T10:19:36.248Z,1006.83
2019-01-18T10:20:36.258Z,1006.80
2019-01-18T10:21:36.218Z,1006.85
2019-01-18T10:22:36.213Z,1006.91
2019-01-18T10:23:36.198Z,1006.84
2019-01-18T10:24:36.191Z,1006.85
2019-01-18T10:25:36.210Z,1006.88
2019-01-18T10:26:36.166Z,1006.82
2019-01-18T10:27:36.153Z,1006.85
2019-01-18T10:28:36.143Z,1006.93
2019-01-18T10:29:36.132Z,1006.86
2019-01-18T10:30:36.130Z,1006.90
2019-01-18T10:31:36.133Z,1006.90
2019-01-18T10:32:36.099Z,1006.91
2019-01-18T10:33:36.092Z,1006.94
2019-01-18T10:34:36.078Z,1006.93
2019-01-18T10:35:36.066Z,1006.95
2019-01-18T10:36:36.058Z,1006.99
2019-01-18T10:37:36.067Z,1006.95
2019-01-18T10:38:36.036Z,1007.00
2019-01-18T10:39:36.027Z,1006.96
2019-01-18T10:40:36.013Z,1007.00
2019-01-18T10:41:36.004Z,1006.98
2019-01-18T10:42:35.992Z,1006.94
2019-01-18T10:43:36.032Z,1007.02
2019-01-18T10:44:35.970Z,1007.03
2019-01-18T10:45:35.963Z,1006.99
2019-01-18T10:46:35.951Z,1007.00
2019-01-18T10:47:35.938Z,1007.05
2019-01-18T10:48:36.149Z,1007.04
2019-01-18T10:49:35.933Z,1007.00
2019-01-18T10:50:35.937Z,1006.99
2019-01-18T10:51:35.895Z,1007.00
2019-01-18T10:52:35.887Z,1007.00
2019-01-18T10:53:35.875Z,1006.98
2019-01-18T10:54:35.863Z,1006.97
2019-01-18T10:55:35.852Z,1007.00
2019-01-18T10:56:35.857Z,1007.02
2019-01-18T10:57:36.121Z,1007.00
2019-01-18T10:58:35.823Z,1007.03
2019-01-18T10:59:35.827Z,1006.96
2019-01-18T11:00:35.798Z,1006.95
2019-01-18T11:01:35.790Z,1006.96
2019-01-18T11:02:35.779Z,1006.92
2019-01-18T11:03:35.769Z,1006.86
2019-01-18T11:04:35.779Z,1006.88
2019-01-18T11:05:35.745Z,1006.87
2019-01-18T11:06:35.732Z,1006.79
2019-01-18T11:07:35.723Z,1006.78
2019-01-18T11:08:35.719Z,1006.75
2019-01-18T11:09:35.702Z,1006.74
2019-01-18T11:10:35.711Z,1006.77
2019-01-18T11:11:35.682Z,1006.84
2019-01-18T11:12:35.666Z,1006.79
2019-01-18T11:13:35.658Z,1006.84
2019-01-18T11:14:35.646Z,1006.84
2019-01-18T11:15:36.231Z,1006.91
2019-01-18T11:16:35.666Z,1006.98
2019-01-18T11:17:35.617Z,1006.97
2019-01-18T11:18:35.604Z,1006.95
2019-01-18T11:19:35.595Z,1006.95
2019-01-18T11:20:35.588Z,1006.93
2019-01-18T11:21:35.572Z,1006.96
2019-01-18T11:22:35.576Z,1006.92
2019-01-18T11:23:35.550Z,1006.90
2019-01-18T11:24:35.540Z,1006.90
2019-01-18T11:25:35.529Z,1006.89
2019-01-18T11:26:35.553Z,1006.92
2019-01-18T11:27:35.508Z,1006.88
2019-01-18T11:28:35.498Z,1006.94
2019-01-18T11:29:35.488Z,1006.91
2019-01-18T11:30:35.474Z,1006.94
2019-01-18T11:31:35.467Z,1006.94
2019-01-18T11:32:35.471Z,1006.95
2019-01-18T11:33:35.444Z,1006.91
2019-01-18T11:34:35.432Z,1006.93
2019-01-18T11:35:35.422Z,1006.95
2019-01-18T11:36:35.410Z,1006.96
2019-01-18T11:37:35.431Z,1006.97
2019-01-18T11:38:35.389Z,1006.94
2019-01-18T11:39:35.379Z,1006.97
2019-01-18T11:40:35.369Z,1006.91
2019-01-18T11:41:35.357Z,1006.95
2019-01-18T11:42:35.348Z,1006.97
2019-01-18T11:43:35.350Z,1007.02
2019-01-18T11:44:35.325Z,1006.94
2019-01-18T11:45:35.327Z,1007.00
2019-01-18T11:46:35.301Z,1006.98
2019-01-18T11:47:35.291Z,1006.99
2019-01-18T11:48:35.312Z,1006.96
2019-01-18T11:49:35.269Z,1006.98
2019-01-18T11:50:35.260Z,1006.97
2019-01-18T11:51:35.247Z,1006.94
2019-01-18T11:52:35.240Z,1006.97
2019-01-18T11:53:35.227Z,1006.98
2019-01-18T11:54:35.230Z,1006.95
2019-01-18T11:55:35.205Z,1006.92
2019-01-18T11:56:35.197Z,1006.94
2019-01-18T11:57:35.186Z,1006.92
2019-01-18T11:58:35.189Z,1006.91
2019-01-18T11:59:35.162Z,1006.87
2019-01-18T12:00:37.863Z,1006.90
2019-01-18T12:01:35.140Z,1006.90
2019-01-18T12:02:35.132Z,1006.93
2019-01-18T12:03:35.122Z,1006.96
2019-01-18T12:04:35.125Z,1006.90
2019-01-18T12:05:35.099Z,1006.96
2019-01-18T12:06:35.086Z,1006.96
2019-01-18T12:07:35.078Z,1006.97
2019-01-18T12:08:35.068Z,1006.97